Time;durP1;ratioP1;P1;durP2;ratioP2;P2;SDS_P1;SDS_P2;PMS_P1;PMS_P2;Temp;Humidity;BMP_temperature;BMP_pressure;BME280_temperature;BME280_humidity;BME280_pressure;Samples;Min_cycle;Max_cycle;Signal;HPM_P1;HPM_P2
2022/01/25 00:10:14;;;;;;;8.35;1.55;;;24.40;99.90;;;;;;5030404;28;20236;-81
2022/01/25 00:16:12;;;;;;;8.57;1.20;;;24.10;99.90;;;;;;5035865;28;20260;-82
2022/01/25 00:24:23;;;;;;;7.38;1.50;;;23.90;99.90;;;;;;5035437;28;20312;-81
2022/01/25 00:27:13;;;;;;;7.68;1.50;;;23.80;99.90;;;;;;5035825;28;20249;-82
2022/01/25 00:32:33;;;;;;;5.40;1.35;;;23.90;99.90;;;;;;5030822;28;20912;-82
2022/01/25 00:35:06;;;;;;;10.75;1.45;;;23.90;99.90;;;;;;5035570;28;20209;-83
2022/01/25 00:37:37;;;;;;;6.80;1.40;;;23.90;99.90;;;;;;5034676;28;20284;-82
2022/01/25 00:40:08;;;;;;;6.00;1.40;;;24.00;99.90;;;;;;5034500;28;20673;-82
2022/01/25 00:42:39;;;;;;;5.35;1.30;;;24.00;99.90;;;;;;5037754;28;20721;-82
2022/01/25 00:45:11;;;;;;;6.78;1.40;;;23.90;99.90;;;;;;5035097;28;20187;-83
2022/01/25 00:47:46;;;;;;;3.65;1.33;;;23.90;99.90;;;;;;5035163;28;20281;-80
2022/01/25 00:50:19;;;;;;;5.63;1.60;;;23.90;99.90;;;;;;5042616;28;20654;-82
2022/01/25 00:55:37;;;;;;;7.15;1.40;;;23.90;99.90;;;;;;5039647;28;20208;-82
2022/01/25 00:58:07;;;;;;;5.70;1.50;;;23.90;99.90;;;;;;5039145;28;20555;-82
2022/01/25 01:00:38;;;;;;;6.55;1.50;;;23.90;99.90;;;;;;5031950;28;20194;-82
2022/01/25 01:03:09;;;;;;;7.88;1.75;;;23.80;99.90;;;;;;5034030;28;20198;-81
2022/01/25 01:05:42;;;;;;;6.32;1.45;;;23.70;99.90;;;;;;5034374;28;20191;-81
2022/01/25 01:08:15;;;;;;;7.80;1.55;;;23.60;99.90;;;;;;5035045;28;20252;-82
2022/01/25 01:10:46;;;;;;;9.52;1.85;;;23.60;99.90;;;;;;5040244;28;20244;-81
2022/01/25 01:16:18;;;;;;;4.80;1.40;;;23.70;99.90;;;;;;5035468;28;20198;-81
2022/01/25 01:30:09;;;;;;;7.30;1.70;;;24.60;99.90;;;;;;5034174;28;20248;-81
2022/01/25 01:33:14;;;;;;;6.55;1.70;;;24.60;99.90;;;;;;5032720;28;20274;-81
2022/01/25 01:36:22;;;;;;;3.78;1.30;;;24.50;99.90;;;;;;5037412;28;20304;-81
2022/01/25 01:41:58;;;;;;;6.15;1.40;;;24.60;99.90;;;;;;5029647;28;20642;-81
2022/01/25 01:44:38;;;;;;;8.85;1.52;;;24.70;99.90;;;;;;5044512;28;20190;-80
2022/01/25 01:47:20;;;;;;;4.90;1.35;;;24.80;99.90;;;;;;5034463;28;20190;-80
2022/01/25 01:49:50;;;;;;;6.45;1.30;;;25.00;99.90;;;;;;5038093;28;20195;-81
2022/01/25 01:52:21;;;;;;;7.65;1.45;;;25.00;99.90;;;;;;5036022;28;20552;-81
2022/01/25 01:54:53;;;;;;;3.92;1.42;;;25.00;99.90;;;;;;5037206;28;20244;-81
2022/01/25 01:57:24;;;;;;;6.18;1.48;;;25.10;99.90;;;;;;5026948;28;20553;-81
2022/01/25 01:59:56;;;;;;;4.88;1.33;;;25.10;99.90;;;;;;5052251;28;20232;-82
2022/01/25 02:02:28;;;;;;;6.97;1.45;;;25.10;99.90;;;;;;5028262;28;20233;-82
2022/01/25 02:05:00;;;;;;;6.75;1.48;;;25.20;99.90;;;;;;5033208;28;20235;-82
2022/01/25 02:07:31;;;;;;;6.10;1.42;;;25.30;99.90;;;;;;5033172;28;20194;-82
2022/01/25 02:10:04;;;;;;;4.65;1.33;;;25.50;99.90;;;;;;5051049;28;20186;-79
2022/01/25 02:12:35;;;;;;;6.60;1.42;;;25.60;99.90;;;;;;5038872;28;20190;-82
2022/01/25 02:15:07;;;;;;;5.05;1.77;;;25.60;99.90;;;;;;5035319;28;20540;-83
2022/01/25 02:17:56;;;;;;;5.03;1.40;;;25.70;99.90;;;;;;5033786;28;20219;-83
2022/01/25 02:23:21;;;;;;;7.63;1.60;;;25.80;99.90;;;;;;5040655;28;20205;-81
2022/01/25 02:25:56;;;;;;;6.93;1.23;;;25.80;99.90;;;;;;5033123;28;20221;-80
2022/01/25 02:28:28;;;;;;;7.85;1.40;;;25.90;99.90;;;;;;5026149;28;20247;-80
2022/01/25 02:30:59;;;;;;;6.40;1.67;;;26.20;99.90;;;;;;5027849;28;20249;-82
2022/01/25 02:33:31;;;;;;;8.77;1.80;;;26.20;99.90;;;;;;5033087;28;20282;-81
2022/01/25 02:36:05;;;;;;;6.53;1.80;;;26.20;99.90;;;;;;5030909;28;20186;-81
2022/01/25 02:38:37;;;;;;;6.47;1.70;;;26.30;99.90;;;;;;5035922;28;20235;-83
2022/01/25 02:41:08;;;;;;;8.27;1.98;;;26.30;99.90;;;;;;5032451;28;20266;-86
2022/01/25 02:43:39;;;;;;;8.20;2.08;;;26.20;99.90;;;;;;5034903;28;20235;-80
2022/01/25 02:48:59;;;;;;;6.25;1.80;;;26.40;99.90;;;;;;5031380;28;20210;-80
2022/01/25 02:51:34;;;;;;;7.40;1.80;;;26.60;99.90;;;;;;5032455;28;20198;-81
2022/01/25 02:54:07;;;;;;;6.97;1.98;;;26.60;99.90;;;;;;5034077;28;20197;-81
2022/01/25 02:56:42;;;;;;;5.13;1.92;;;26.40;99.90;;;;;;5026100;28;20214;-80
2022/01/25 02:59:14;;;;;;;7.05;1.80;;;26.20;99.90;;;;;;5029742;28;20190;-79
2022/01/25 03:01:46;;;;;;;7.65;1.70;;;26.20;99.90;;;;;;5031657;28;20199;-81
2022/01/25 03:04:19;;;;;;;8.57;1.77;;;26.20;99.90;;;;;;5034910;28;20666;-82
2022/01/25 03:06:51;;;;;;;6.97;1.45;;;26.20;99.90;;;;;;5031783;28;20186;-81
2022/01/25 03:09:22;;;;;;;5.80;1.85;;;26.20;99.90;;;;;;5029728;28;20661;-81
2022/01/25 03:11:54;;;;;;;5.75;1.50;;;26.10;99.90;;;;;;5030907;28;20194;-80
2022/01/25 03:14:30;;;;;;;6.88;1.50;;;25.90;99.90;;;;;;5030327;28;20910;-80
2022/01/25 03:17:12;;;;;;;7.63;1.63;;;26.00;99.90;;;;;;5032559;28;20674;-80
2022/01/25 03:19:49;;;;;;;8.35;2.20;;;26.10;99.90;;;;;;5035026;28;20183;-79
2022/01/25 03:22:42;;;;;;;7.45;1.67;;;26.30;99.90;;;;;;5038683;28;20192;-79
2022/01/25 03:25:13;;;;;;;5.22;1.70;;;26.20;99.90;;;;;;5031399;28;20609;-80
2022/01/25 03:27:43;;;;;;;8.98;1.98;;;26.20;99.90;;;;;;5039986;28;20252;-79
2022/01/25 03:30:15;;;;;;;8.60;1.98;;;26.00;99.90;;;;;;5036694;28;20194;-79
2022/01/25 03:32:45;;;;;;;7.90;1.80;;;25.90;99.90;;;;;;5037330;28;20198;-80
2022/01/25 03:35:16;;;;;;;7.78;1.83;;;25.90;99.90;;;;;;5036922;28;20634;-80
2022/01/25 03:37:48;;;;;;;6.38;1.90;;;26.00;99.90;;;;;;5035989;28;20276;-83
2022/01/25 03:40:19;;;;;;;6.68;1.70;;;26.00;99.90;;;;;;5037953;28;20260;-80
2022/01/25 03:42:50;;;;;;;5.85;1.70;;;25.80;99.90;;;;;;5036779;28;20252;-82
2022/01/25 03:45:22;;;;;;;6.40;1.75;;;25.80;99.90;;;;;;5039527;28;20243;-79
2022/01/25 03:49:47;;;;;;;4.60;1.60;;;25.90;99.90;;;;;;5038130;28;20241;-80
2022/01/25 03:50:49;;;;;;;7.03;1.92;;;25.90;99.90;;;;;;5039349;28;20190;-80
2022/01/25 03:53:23;;;;;;;8.60;1.52;;;25.90;99.90;;;;;;5035845;28;20248;-80
2022/01/25 03:55:53;;;;;;;6.90;1.75;;;26.10;99.90;;;;;;5035868;28;20186;-80
2022/01/25 03:58:25;;;;;;;5.70;1.80;;;26.20;99.90;;;;;;5036011;28;20218;-79
2022/01/25 04:00:56;;;;;;;6.72;1.60;;;26.10;99.90;;;;;;5037055;28;20647;-80
2022/01/25 04:03:31;;;;;;;6.63;1.70;;;26.00;99.90;;;;;;5040969;28;20681;-82
2022/01/25 04:06:02;;;;;;;6.85;1.55;;;25.90;99.90;;;;;;5040269;28;20193;-81
2022/01/25 04:08:36;;;;;;;6.93;1.90;;;25.90;99.90;;;;;;5039620;28;20190;-80
2022/01/25 04:11:06;;;;;;;6.95;1.83;;;25.80;99.90;;;;;;5034474;28;20716;-80
2022/01/25 04:13:37;;;;;;;8.68;1.55;;;25.90;99.90;;;;;;5035867;28;20542;-80
2022/01/25 04:16:13;;;;;;;5.38;1.58;;;26.00;99.90;;;;;;5039911;28;20190;-80
2022/01/25 04:18:57;;;;;;;6.00;1.52;;;26.00;99.90;;;;;;5038369;28;20218;-81
2022/01/25 04:24:39;;;;;;;6.07;1.70;;;26.00;99.90;;;;;;5035873;28;20612;-80
2022/01/25 04:27:24;;;;;;;7.78;1.70;;;26.10;99.90;;;;;;5033854;28;20580;-81
2022/01/25 04:29:55;;;;;;;4.70;1.63;;;25.90;99.90;;;;;;5036218;28;20241;-80
2022/01/25 04:32:33;;;;;;;5.85;1.58;;;25.80;99.90;;;;;;5036430;28;20603;-81
2022/01/25 04:35:27;;;;;;;5.05;1.50;;;25.90;99.90;;;;;;5034858;28;20226;-80
2022/01/25 04:49:18;;;;;;;3.83;1.30;;;25.90;99.90;;;;;;5039660;28;20613;-80
2022/01/25 04:51:54;;;;;;;8.48;1.55;;;25.70;99.90;;;;;;5037078;28;20196;-81
2022/01/25 04:54:43;;;;;;;9.13;1.70;;;25.70;99.90;;;;;;5035200;28;20236;-82
2022/01/25 04:57:35;;;;;;;8.65;1.58;;;25.80;99.90;;;;;;5034741;28;20222;-81
2022/01/25 05:00:14;;;;;;;5.75;1.67;;;25.80;99.90;;;;;;5034096;28;20307;-81
2022/01/25 05:02:50;;;;;;;10.38;1.83;;;25.80;99.90;;;;;;5039338;28;20588;-80
2022/01/25 05:05:28;;;;;;;5.32;1.70;;;25.90;99.90;;;;;;5034438;28;20229;-81
2022/01/25 05:08:04;;;;;;;5.82;1.45;;;25.80;99.90;;;;;;5034033;28;20182;-80
2022/01/25 05:10:46;;;;;;;5.43;1.35;;;25.90;99.90;;;;;;5034127;28;20545;-80
2022/01/25 05:13:37;;;;;;;6.15;1.10;;;25.80;99.90;;;;;;5035658;28;20468;-80
2022/01/25 05:16:26;;;;;;;7.78;1.55;;;25.60;99.90;;;;;;5034027;28;20281;-80
2022/01/25 05:19:05;;;;;;;6.35;1.50;;;25.50;99.90;;;;;;5033996;28;20230;-80
2022/01/25 05:24:22;;;;;;;7.20;1.20;;;25.90;99.90;;;;;;5040310;28;20237;-80
2022/01/25 05:26:53;;;;;;;8.18;1.20;;;25.90;99.90;;;;;;5036463;28;20190;-80
2022/01/25 05:29:47;;;;;;;4.88;1.20;;;25.90;99.90;;;;;;5033996;28;20225;-79
2022/01/25 05:32:19;;;;;;;7.28;1.30;;;25.70;99.90;;;;;;5029831;28;20202;-82
2022/01/25 05:34:50;;;;;;;7.43;1.30;;;25.60;99.90;;;;;;5034078;28;20257;-80
2022/01/25 05:37:20;;;;;;;4.68;1.13;;;25.60;99.90;;;;;;5033250;28;20236;-81
2022/01/25 05:39:52;;;;;;;5.07;1.35;;;25.50;99.90;;;;;;5038530;28;20214;-79
2022/01/25 05:45:36;;;;;;;4.90;1.10;;;25.50;99.90;;;;;;5018361;28;20212;-80
2022/01/25 05:48:07;;;;;;;6.53;1.05;;;25.40;99.90;;;;;;5033653;28;20194;-79
2022/01/25 05:50:38;;;;;;;4.97;1.40;;;25.40;99.90;;;;;;5033093;28;20194;-80
2022/01/25 05:53:09;;;;;;;6.32;1.27;;;25.40;99.90;;;;;;5032854;28;20198;-81
2022/01/25 05:55:39;;;;;;;4.90;1.30;;;25.30;99.90;;;;;;5037060;28;20189;-78
2022/01/25 05:58:10;;;;;;;6.40;1.27;;;25.30;99.90;;;;;;5035392;28;20233;-82
2022/01/25 06:00:43;;;;;;;5.68;1.25;;;25.30;99.90;;;;;;5032167;28;20563;-80
2022/01/25 06:03:13;;;;;;;5.80;1.17;;;25.30;99.90;;;;;;5032956;28;20190;-83
2022/01/25 06:05:44;;;;;;;9.27;1.60;;;25.20;99.90;;;;;;5034549;28;20197;-80
2022/01/25 06:08:15;;;;;;;5.03;1.00;;;24.80;99.90;;;;;;5043335;28;20276;-80
2022/01/25 06:10:46;;;;;;;5.47;1.40;;;24.70;99.90;;;;;;5033534;28;20193;-80
2022/01/25 06:13:17;;;;;;;5.55;1.50;;;24.70;99.90;;;;;;5045459;28;20189;-80
2022/01/25 06:15:49;;;;;;;10.52;1.52;;;24.70;99.90;;;;;;5033011;28;20658;-80
2022/01/25 06:18:20;;;;;;;3.97;1.20;;;24.80;99.90;;;;;;5031740;28;20210;-79
2022/01/25 06:20:51;;;;;;;4.63;1.15;;;24.90;99.90;;;;;;5032121;28;20187;-80
2022/01/25 06:23:21;;;;;;;6.55;1.13;;;25.00;99.90;;;;;;5032994;28;20191;-79
2022/01/25 06:25:52;;;;;;;3.25;1.10;;;25.00;99.90;;;;;;5033202;28;20276;-83
2022/01/25 06:28:23;;;;;;;5.97;1.30;;;25.00;99.90;;;;;;5038603;28;20190;-82
2022/01/25 06:30:55;;;;;;;5.75;1.27;;;24.80;99.90;;;;;;5039506;28;20209;-79
2022/01/25 06:33:26;;;;;;;9.20;1.30;;;24.60;99.90;;;;;;5032330;28;20190;-81
2022/01/25 06:35:57;;;;;;;5.25;1.23;;;24.40;99.90;;;;;;5027486;28;20194;-81
2022/01/25 06:38:28;;;;;;;5.53;1.42;;;24.50;99.90;;;;;;5033491;28;20674;-81
2022/01/25 06:41:01;;;;;;;6.07;1.35;;;24.60;99.90;;;;;;5034706;28;20193;-81
2022/01/25 06:43:32;;;;;;;6.28;1.40;;;24.70;99.90;;;;;;5036505;28;20193;-82
2022/01/25 06:46:05;;;;;;;8.73;1.42;;;24.60;99.90;;;;;;5033606;28;20201;-81
2022/01/25 06:48:36;;;;;;;4.30;1.00;;;24.50;99.90;;;;;;5039660;28;20240;-81
2022/01/25 06:51:07;;;;;;;5.05;1.50;;;24.40;99.90;;;;;;5036893;28;20221;-81
2022/01/25 06:53:38;;;;;;;6.75;1.20;;;24.40;99.90;;;;;;5036353;28;20218;-81
2022/01/25 06:56:08;;;;;;;6.70;1.20;;;24.30;99.90;;;;;;5034825;28;20190;-80
2022/01/25 06:58:41;;;;;;;5.65;1.20;;;24.40;99.90;;;;;;5038039;28;20245;-80
2022/01/25 07:01:13;;;;;;;5.47;1.35;;;24.50;99.90;;;;;;5037059;28;20597;-83
2022/01/25 07:03:44;;;;;;;6.15;1.25;;;24.40;99.90;;;;;;5033623;28;20608;-80
2022/01/25 07:06:15;;;;;;;3.65;1.13;;;24.40;99.90;;;;;;5033574;28;20191;-80
2022/01/25 07:08:46;;;;;;;5.78;1.27;;;24.40;99.90;;;;;;5036283;28;20183;-80
2022/01/25 07:11:17;;;;;;;6.43;1.25;;;24.30;99.90;;;;;;5031353;28;20197;-80
2022/01/25 07:13:47;;;;;;;6.60;1.25;;;24.30;99.90;;;;;;5063614;28;20187;-80
2022/01/25 07:16:20;;;;;;;3.75;1.10;;;24.40;99.90;;;;;;5033413;28;20194;-80
2022/01/25 07:18:51;;;;;;;6.57;1.35;;;24.40;99.90;;;;;;5036026;28;20678;-80
2022/01/25 07:21:21;;;;;;;5.78;1.17;;;24.30;99.90;;;;;;5031782;28;20201;-80
2022/01/25 07:23:52;;;;;;;5.40;1.20;;;24.30;99.90;;;;;;5033900;28;20224;-80
2022/01/25 07:26:23;;;;;;;7.10;1.30;;;24.30;99.90;;;;;;5033378;28;20182;-81
2022/01/25 07:28:53;;;;;;;5.78;1.40;;;24.30;99.90;;;;;;5031476;28;20195;-80
2022/01/25 07:31:26;;;;;;;5.80;1.13;;;24.20;99.90;;;;;;5031853;28;20222;-81
2022/01/25 07:33:57;;;;;;;6.18;1.25;;;24.00;99.90;;;;;;5034296;28;20205;-81
2022/01/25 07:36:27;;;;;;;5.38;1.20;;;23.90;99.90;;;;;;5040617;28;20193;-80
2022/01/25 07:38:58;;;;;;;3.75;1.27;;;23.90;99.90;;;;;;5028199;28;20313;-81
2022/01/25 07:41:29;;;;;;;4.30;1.38;;;23.80;99.90;;;;;;5031104;28;20194;-81
2022/01/25 07:43:59;;;;;;;5.80;1.25;;;23.80;99.90;;;;;;5032877;28;20232;-80
2022/01/25 07:46:32;;;;;;;5.35;1.20;;;23.70;99.90;;;;;;5028261;28;20195;-79
2022/01/25 07:49:03;;;;;;;8.05;1.70;;;23.70;99.90;;;;;;5035397;28;20190;-80
2022/01/25 07:51:35;;;;;;;5.88;1.73;;;23.60;99.90;;;;;;5039101;28;20197;-80
2022/01/25 07:54:06;;;;;;;5.88;1.23;;;23.60;99.90;;;;;;5024648;28;20198;-79
2022/01/25 07:56:36;;;;;;;8.32;1.92;;;23.50;99.90;;;;;;5038383;28;20462;-80
2022/01/25 07:59:07;;;;;;;7.60;2.25;;;23.50;99.90;;;;;;5032292;28;20218;-80
2022/01/25 08:01:40;;;;;;;7.85;1.40;;;23.50;99.90;;;;;;5034462;28;20191;-80
2022/01/25 08:04:12;;;;;;;4.90;1.20;;;23.50;99.90;;;;;;5027448;28;20547;-79
2022/01/25 08:06:43;;;;;;;4.57;1.13;;;23.50;99.90;;;;;;5037838;28;20195;-78
2022/01/25 08:09:14;;;;;;;4.95;1.30;;;23.40;99.90;;;;;;5032740;28;20190;-79
2022/01/25 08:11:45;;;;;;;6.47;1.38;;;23.30;99.90;;;;;;5034022;28;20665;-80
2022/01/25 08:25:01;;;;;;;7.30;1.02;;;23.40;99.90;;;;;;5146758;22;20684;-72
2022/01/25 08:27:32;;;;;;;5.65;1.10;;;23.30;99.90;;;;;;5004108;28;20286;-72
2022/01/25 08:30:03;;;;;;;6.07;1.38;;;23.30;99.90;;;;;;5015458;28;20194;-72
2022/01/25 08:32:33;;;;;;;4.10;1.30;;;23.40;99.90;;;;;;5013943;28;20652;-72
2022/01/25 08:35:04;;;;;;;6.07;1.40;;;23.30;99.90;;;;;;5011395;28;20191;-72
2022/01/25 08:37:35;;;;;;;7.05;1.20;;;23.30;99.90;;;;;;5002798;28;20668;-71
2022/01/25 08:40:09;;;;;;;3.75;1.30;;;23.30;99.90;;;;;;5011306;28;20211;-72
2022/01/25 08:42:40;;;;;;;6.35;1.20;;;23.30;99.90;;;;;;5013937;28;20191;-72
2022/01/25 08:45:12;;;;;;;4.15;1.17;;;23.20;99.90;;;;;;5014491;28;20187;-74
2022/01/25 08:47:42;;;;;;;3.60;1.00;;;23.20;99.90;;;;;;5015405;28;20195;-74
2022/01/25 08:50:14;;;;;;;5.07;1.20;;;23.20;99.90;;;;;;5013389;28;20211;-74
2022/01/25 08:52:45;;;;;;;5.40;1.10;;;23.20;99.90;;;;;;4999996;28;20200;-74
2022/01/25 08:55:18;;;;;;;6.60;1.13;;;23.10;99.90;;;;;;5014558;28;20199;-74
2022/01/25 08:57:49;;;;;;;7.30;1.33;;;23.10;99.90;;;;;;4997951;28;20217;-74
2022/01/25 09:00:19;;;;;;;7.47;1.20;;;23.10;99.90;;;;;;5011834;28;20701;-74
2022/01/25 09:02:50;;;;;;;3.88;1.40;;;23.00;99.90;;;;;;5009693;28;20646;-74
2022/01/25 09:05:21;;;;;;;6.07;1.30;;;23.00;99.90;;;;;;5005540;28;20238;-74
2022/01/25 09:07:51;;;;;;;5.03;1.38;;;23.10;99.90;;;;;;5012583;28;20275;-74
2022/01/25 09:10:24;;;;;;;6.28;1.40;;;23.10;99.90;;;;;;5011075;28;20663;-74
2022/01/25 09:12:55;;;;;;;6.43;1.50;;;23.10;99.90;;;;;;5005028;28;20198;-75
2022/01/25 09:15:26;;;;;;;6.05;1.48;;;23.00;99.90;;;;;;5006474;28;20245;-74
2022/01/25 09:17:56;;;;;;;8.65;1.75;;;23.00;99.90;;;;;;5017149;28;20548;-74
2022/01/25 09:20:27;;;;;;;6.90;1.60;;;23.00;99.90;;;;;;5009006;28;20221;-74
2022/01/25 09:22:58;;;;;;;7.07;1.67;;;23.00;99.90;;;;;;5011418;28;20542;-74
2022/01/25 09:25:30;;;;;;;5.75;1.40;;;23.00;99.90;;;;;;5017279;28;20284;-74
2022/01/25 09:28:01;;;;;;;7.82;1.40;;;23.00;99.90;;;;;;5016213;28;20217;-74
2022/01/25 09:30:36;;;;;;;5.78;1.42;;;23.00;99.90;;;;;;5010664;28;20658;-74
2022/01/25 09:33:07;;;;;;;4.05;1.10;;;22.90;99.90;;;;;;5013733;28;20646;-74
2022/01/25 09:35:38;;;;;;;6.95;1.20;;;22.90;99.90;;;;;;5014666;28;20713;-75
2022/01/25 09:38:09;;;;;;;7.10;1.40;;;22.90;99.90;;;;;;5015697;28;20186;-74
2022/01/25 09:40:42;;;;;;;4.93;1.17;;;22.80;99.90;;;;;;5012793;28;20198;-74
2022/01/25 09:43:13;;;;;;;3.53;1.02;;;22.80;99.90;;;;;;5011979;28;20196;-74
2022/01/25 09:45:44;;;;;;;5.65;1.20;;;22.80;99.90;;;;;;5014713;28;20187;-74
2022/01/25 09:48:15;;;;;;;6.53;1.35;;;22.80;99.90;;;;;;5014372;28;20238;-74
2022/01/25 09:50:47;;;;;;;8.43;0.98;;;22.70;99.90;;;;;;5015198;28;20221;-74
2022/01/25 09:53:17;;;;;;;4.53;1.15;;;22.70;99.90;;;;;;5018169;28;20197;-75
2022/01/25 09:55:51;;;;;;;3.97;1.27;;;22.70;99.90;;;;;;5018791;28;20188;-75
2022/01/25 09:58:21;;;;;;;6.53;1.75;;;22.70;99.90;;;;;;5014178;28;20198;-75
2022/01/25 10:00:56;;;;;;;4.47;1.20;;;22.70;99.90;;;;;;5008432;28;20199;-75
2022/01/25 10:03:32;;;;;;;7.10;1.30;;;22.60;99.90;;;;;;5020205;28;20719;-75
2022/01/25 10:06:04;;;;;;;5.68;1.20;;;22.60;99.90;;;;;;5010646;28;20565;-75
2022/01/25 10:08:35;;;;;;;4.53;1.10;;;22.70;99.90;;;;;;5014434;28;20193;-75
2022/01/25 10:11:10;;;;;;;5.88;1.30;;;22.60;99.90;;;;;;5022105;28;20634;-75
2022/01/25 10:13:41;;;;;;;6.65;1.17;;;22.60;99.90;;;;;;5015700;28;20229;-75
2022/01/25 10:16:13;;;;;;;5.20;1.10;;;22.60;99.90;;;;;;5013449;28;20194;-75
2022/01/25 10:18:49;;;;;;;6.15;1.20;;;22.60;99.90;;;;;;5013129;28;20218;-74
2022/01/25 10:21:24;;;;;;;6.47;1.52;;;22.60;99.90;;;;;;5014950;28;20248;-74
2022/01/25 10:24:19;;;;;;;5.60;1.25;;;22.60;99.90;;;;;;5010381;28;20226;-75
2022/01/25 10:26:54;;;;;;;3.67;1.00;;;22.60;99.90;;;;;;4999737;28;20201;-74
2022/01/25 10:29:29;;;;;;;4.55;1.38;;;22.60;99.90;;;;;;5010928;28;20260;-75
2022/01/25 10:32:05;;;;;;;5.93;1.50;;;22.50;99.90;;;;;;5008358;28;20660;-74
2022/01/25 10:34:45;;;;;;;7.30;1.30;;;22.50;99.90;;;;;;5013052;28;20186;-74
2022/01/25 10:37:17;;;;;;;6.43;1.58;;;22.50;99.90;;;;;;5014500;28;20620;-75
2022/01/25 10:39:49;;;;;;;4.47;1.40;;;22.60;99.90;;;;;;5012594;28;20214;-74
2022/01/25 10:42:25;;;;;;;6.95;1.42;;;22.60;99.90;;;;;;5012396;28;20283;-75
2022/01/25 10:44:58;;;;;;;6.65;1.52;;;22.50;99.90;;;;;;5012558;28;20622;-75
2022/01/25 10:47:42;;;;;;;6.95;1.20;;;22.50;99.90;;;;;;5012679;28;20206;-74
2022/01/25 10:50:17;;;;;;;6.85;1.50;;;22.50;99.90;;;;;;5006436;28;20199;-75
2022/01/25 10:52:49;;;;;;;6.35;1.70;;;22.50;99.90;;;;;;5012600;28;20198;-74
2022/01/25 10:55:19;;;;;;;9.40;1.65;;;22.50;99.90;;;;;;5012778;28;20194;-74
2022/01/25 10:58:04;;;;;;;8.38;1.58;;;22.40;99.90;;;;;;5013100;28;20195;-74
2022/01/25 11:00:37;;;;;;;4.82;1.20;;;22.40;99.90;;;;;;5013782;28;20221;-74
2022/01/25 11:03:09;;;;;;;9.77;1.67;;;22.40;99.90;;;;;;5017671;28;20197;-74
2022/01/25 11:05:44;;;;;;;7.32;1.42;;;22.40;99.90;;;;;;5010451;28;20202;-75
2022/01/25 11:08:16;;;;;;;5.95;1.50;;;22.40;99.90;;;;;;5016325;28;20221;-74
2022/01/25 11:10:52;;;;;;;9.13;1.65;;;22.40;99.90;;;;;;5010865;28;20599;-75
2022/01/25 11:13:38;;;;;;;3.72;1.20;;;22.40;99.90;;;;;;5012460;28;20195;-74
2022/01/25 11:16:11;;;;;;;6.45;1.65;;;22.30;99.90;;;;;;5010218;28;20203;-74
2022/01/25 11:18:42;;;;;;;4.45;1.13;;;22.30;99.90;;;;;;5012156;28;20206;-74
2022/01/25 11:21:14;;;;;;;4.13;1.33;;;22.30;99.90;;;;;;5016380;28;20194;-75
2022/01/25 11:23:45;;;;;;;5.45;1.52;;;22.30;99.90;;;;;;5012196;28;20598;-74
2022/01/25 11:26:17;;;;;;;5.18;1.30;;;22.30;99.90;;;;;;5010000;28;20271;-75
2022/01/25 11:28:51;;;;;;;8.10;1.60;;;22.30;99.90;;;;;;5012209;28;20221;-75
2022/01/25 11:31:24;;;;;;;5.43;1.20;;;22.30;99.90;;;;;;5012276;28;20218;-75
2022/01/25 11:33:56;;;;;;;4.72;1.20;;;22.30;99.90;;;;;;5012727;28;20198;-74
2022/01/25 11:36:30;;;;;;;7.88;1.42;;;22.30;99.90;;;;;;5012195;28;20199;-74
2022/01/25 11:39:02;;;;;;;5.60;1.25;;;22.30;99.90;;;;;;5012314;28;20240;-75
2022/01/25 11:41:36;;;;;;;6.18;1.40;;;22.30;99.90;;;;;;5012235;28;20654;-75
2022/01/25 11:44:12;;;;;;;6.25;1.40;;;22.30;99.90;;;;;;5012733;28;20197;-74
2022/01/25 11:46:48;;;;;;;5.35;1.23;;;22.30;99.90;;;;;;5012043;28;20198;-75
2022/01/25 11:49:21;;;;;;;4.05;1.20;;;22.30;99.90;;;;;;5005755;28;20213;-75
2022/01/25 11:52:14;;;;;;;4.55;1.10;;;22.40;99.90;;;;;;5012362;28;20191;-74
2022/01/25 11:54:45;;;;;;;10.50;1.40;;;22.40;99.90;;;;;;5006988;28;20195;-74
2022/01/25 11:57:19;;;;;;;6.65;1.35;;;22.40;99.90;;;;;;5011842;28;20214;-74
2022/01/25 11:59:58;;;;;;;4.35;1.20;;;22.40;99.90;;;;;;5014153;28;20265;-74
2022/01/25 12:02:44;;;;;;;2.88;0.90;;;22.40;99.90;;;;;;5010636;28;20241;-75
2022/01/25 12:05:16;;;;;;;3.78;1.02;;;22.40;99.90;;;;;;5018531;28;20618;-75
2022/01/25 12:08:08;;;;;;;3.47;1.30;;;22.40;99.90;;;;;;5017345;28;20536;-74
2022/01/25 12:10:41;;;;;;;4.68;1.10;;;22.30;99.90;;;;;;5017431;28;20187;-75
2022/01/25 12:13:18;;;;;;;3.67;1.10;;;22.40;99.90;;;;;;5016039;28;20226;-74
2022/01/25 12:16:28;;;;;;;8.23;1.33;;;22.30;99.90;;;;;;5012940;28;20708;-74
2022/01/25 12:19:03;;;;;;;3.55;1.10;;;22.30;99.90;;;;;;5023866;28;20218;-74
2022/01/25 12:22:04;;;;;;;6.22;1.30;;;22.30;99.90;;;;;;5015983;28;20700;-75
2022/01/25 12:24:39;;;;;;;5.55;1.33;;;22.30;99.90;;;;;;5026976;28;20226;-74
2022/01/25 12:27:19;;;;;;;7.88;1.40;;;22.20;99.90;;;;;;5014121;28;20190;-75
2022/01/25 12:30:00;;;;;;;4.50;1.40;;;22.30;99.90;;;;;;5015324;28;20274;-75
2022/01/25 12:32:38;;;;;;;7.32;1.20;;;22.20;99.90;;;;;;5007235;28;20681;-74
2022/01/25 12:35:14;;;;;;;5.80;1.52;;;22.20;99.90;;;;;;5021938;28;20244;-74
2022/01/25 12:38:04;;;;;;;4.10;1.20;;;22.20;99.90;;;;;;5014483;28;20214;-75
2022/01/25 12:40:41;;;;;;;3.55;1.05;;;22.20;99.90;;;;;;5008309;28;20686;-75
2022/01/25 12:43:18;;;;;;;4.18;1.10;;;22.20;99.90;;;;;;5014145;28;20191;-74
2022/01/25 12:45:52;;;;;;;7.65;1.40;;;22.20;99.90;;;;;;5014114;28;20187;-74
2022/01/25 12:48:27;;;;;;;6.85;1.50;;;22.20;99.90;;;;;;5014362;28;20216;-75
2022/01/25 12:51:01;;;;;;;3.30;1.15;;;22.20;99.90;;;;;;5010134;28;20642;-74
2022/01/25 12:53:35;;;;;;;5.35;1.10;;;22.20;99.90;;;;;;5010490;28;20206;-75
2022/01/25 12:56:10;;;;;;;4.28;1.15;;;22.20;99.90;;;;;;5015387;28;20675;-75
2022/01/25 12:58:42;;;;;;;5.45;1.30;;;22.20;99.90;;;;;;5013536;28;20183;-75
2022/01/25 13:01:16;;;;;;;4.18;1.20;;;22.10;99.90;;;;;;5013783;28;20215;-75
2022/01/25 13:03:51;;;;;;;6.55;1.25;;;22.10;99.90;;;;;;5013555;28;20199;-75
2022/01/25 13:06:24;;;;;;;4.38;1.20;;;22.10;99.90;;;;;;5013187;28;20191;-75
2022/01/25 13:09:00;;;;;;;8.52;1.42;;;22.10;99.90;;;;;;5013910;28;20642;-74
2022/01/25 13:11:43;;;;;;;5.85;1.35;;;22.10;99.90;;;;;;5013513;28;20195;-75
2022/01/25 13:14:32;;;;;;;7.05;1.27;;;22.10;99.90;;;;;;5014486;28;20595;-74
2022/01/25 13:17:06;;;;;;;5.38;1.20;;;22.10;99.90;;;;;;5014671;28;20203;-75
2022/01/25 13:19:43;;;;;;;4.60;1.13;;;22.10;99.90;;;;;;5013959;28;20639;-75
2022/01/25 13:22:17;;;;;;;4.95;1.40;;;22.10;99.90;;;;;;5013651;28;20194;-75
2022/01/25 13:24:57;;;;;;;5.30;1.48;;;22.10;99.90;;;;;;4911177;28;2793072;-74
2022/01/25 13:27:34;;;;;;;2.10;1.08;;;22.10;99.90;;;;;;5014584;28;20209;-74
2022/01/25 13:32:54;;;;;;;4.20;1.10;;;22.00;99.90;;;;;;5008291;28;20193;-75
2022/01/25 13:35:30;;;;;;;3.40;1.10;;;22.00;99.90;;;;;;5014395;28;20202;-75
2022/01/25 13:40:46;;;;;;;4.00;1.15;;;22.00;99.90;;;;;;5109805;23;20327;-74
2022/01/25 13:45:43;;;;;;;4.03;1.27;;;22.00;99.90;;;;;;5030908;28;20202;-75
2022/01/25 13:46:25;;;;;;;7.13;1.23;;;22.00;99.90;;;;;;5034060;28;20191;-74
2022/01/25 13:48:58;;;;;;;5.47;1.17;;;22.00;99.90;;;;;;5026265;28;20186;-75
2022/01/25 13:51:32;;;;;;;4.63;1.40;;;21.90;99.90;;;;;;5034033;28;20191;-74
2022/01/25 13:54:03;;;;;;;4.55;1.10;;;21.90;99.90;;;;;;5033537;28;20582;-74
2022/01/25 13:56:36;;;;;;;4.75;1.30;;;21.90;99.90;;;;;;5033865;28;20195;-74
2022/01/25 13:59:08;;;;;;;2.90;1.23;;;21.90;99.90;;;;;;5038532;28;20190;-74
2022/01/25 14:01:41;;;;;;;6.90;1.30;;;21.90;99.90;;;;;;5034504;28;20268;-74
2022/01/25 14:04:13;;;;;;;3.40;1.10;;;21.90;99.90;;;;;;5033607;28;20201;-75
2022/01/25 14:06:46;;;;;;;6.53;1.33;;;21.90;99.90;;;;;;5033117;28;20190;-74
2022/01/25 14:09:22;;;;;;;5.93;1.50;;;21.90;99.90;;;;;;5033237;28;20240;-74
2022/01/25 14:23:24;;;;;;;3.17;1.10;;;21.90;99.90;;;;;;5039558;28;20193;-74
2022/01/25 14:26:02;;;;;;;3.95;1.17;;;21.90;99.90;;;;;;5032635;28;20289;-74
2022/01/25 14:28:39;;;;;;;3.90;1.20;;;21.90;99.90;;;;;;5038134;28;20190;-75
2022/01/25 14:31:17;;;;;;;4.07;1.10;;;21.90;99.90;;;;;;5032855;28;20265;-74
2022/01/25 14:33:54;;;;;;;5.40;1.23;;;21.90;99.90;;;;;;5033696;28;20222;-74
2022/01/25 14:36:26;;;;;;;4.40;1.20;;;21.80;99.90;;;;;;5033514;28;20190;-75
2022/01/25 14:38:59;;;;;;;5.65;1.20;;;21.90;99.90;;;;;;5027012;28;20230;-74
2022/01/25 14:41:31;;;;;;;3.88;1.20;;;21.80;99.90;;;;;;5021615;28;20751;-75
2022/01/25 14:44:04;;;;;;;3.22;1.23;;;21.80;99.90;;;;;;5023960;28;20553;-74
2022/01/25 14:46:36;;;;;;;3.60;1.10;;;21.80;99.90;;;;;;5019154;28;20195;-75
2022/01/25 14:49:13;;;;;;;4.10;1.20;;;21.80;99.90;;;;;;5032674;28;20193;-74
2022/01/25 14:51:45;;;;;;;4.60;1.33;;;21.70;99.90;;;;;;5017532;28;20204;-74
2022/01/25 14:54:19;;;;;;;6.35;1.20;;;21.80;99.90;;;;;;5022651;28;20232;-75
2022/01/25 14:56:56;;;;;;;4.70;1.20;;;21.70;99.90;;;;;;5016333;28;20607;-74